Terminal Aerodrome Forecast
Issued by NWS

Home | Current Version | Previous Version | Text Only | Print | Product List | Glossary On
Versions: 1 2 3 4 5 6 7 8 9 10 11 12 13 14 15 16 17 18 19 20 21 22 23 24 25 26 27 28 29 30 31 32 33
266
FTUS41 KBOX 290535 AAA
TAFBAF
TAF AMD
KBAF 290535Z 2906/3006 VRB04KT P6SM BKN200
     FM291000 VRB04KT P6SM VCSH BKN080
     FM291300 25005G12KT P6SM BKN070
     FM292000 29011G20KT P6SM SCT050
     FM292300 30010G20KT P6SM BKN120
     FM300500 33006KT P6SM SCT110=

USA.gov is the U.S. government's official web portal to all federal, state and local government web resources and services.